Wilmore, Kentucky
Current Conditions -  °F | °C
As of 2:54 PM on Friday 28 Nov 2014 (Local Time) from KLEX Reporting Station
Broken Clouds Broken Clouds  
Wind Chill: 26°   Ceiling: 12000
Heat Index: 35°   Visibility: 10mi
Dew Point: 16°   Wind: 13mph
Humidity: 46%   Direction: 180°S
Pressure: 30.26"   Gusts: NA
Location:  37.86°N, 84.66°W
Report Text: KLEX 281954Z 18011KT 10SM BKN120 02/M09 A3026 RMK AO2 SLP256 T00171089
Loading
Personal Weather Stations






























Interactive Weather Map New forecast layout! Learn more

10-Day Weather Forecast

Advertisements
Track Severe Weather on mobile